createdAt,value
2019-04-05T00:00:05.549Z,73.10
2019-04-05T00:01:05.645Z,73.00
2019-04-05T00:02:05.708Z,73.20
2019-04-05T00:03:05.859Z,73.50
2019-04-05T00:04:05.006Z,73.30
2019-04-05T00:05:05.150Z,73.20
2019-04-05T00:06:05.318Z,73.20
2019-04-05T00:07:05.396Z,73.30
2019-04-05T00:08:05.428Z,73.20
2019-04-05T00:09:05.516Z,73.20
2019-04-05T00:10:08.501Z,73.10
2019-04-05T00:11:08.525Z,73.20
2019-04-05T00:12:08.512Z,73.10
2019-04-05T00:13:05.531Z,73.10
2019-04-05T00:14:08.506Z,73.20
2019-04-05T00:15:16.209Z,73.20
2019-04-05T00:16:08.521Z,73.30
2019-04-05T00:17:08.516Z,73.10
2019-04-05T00:18:05.440Z,73.20
2019-04-05T00:19:05.470Z,73.20
2019-04-05T00:20:10.588Z,73.20
2019-04-05T00:21:05.532Z,73.20
2019-04-05T00:22:08.550Z,73.50
2019-04-05T00:23:05.516Z,73.60
2019-04-05T00:24:05.648Z,73.60
2019-04-05T00:25:08.503Z,73.90
2019-04-05T00:26:05.571Z,73.90
2019-04-05T00:27:05.748Z,73.80
2019-04-05T00:28:05.796Z,73.90
2019-04-05T00:29:05.911Z,73.90
2019-04-05T00:30:08.537Z,73.80
2019-04-05T00:31:08.513Z,74.20
2019-04-05T00:32:05.455Z,74.20
2019-04-05T00:33:08.523Z,74.00
2019-04-05T00:34:05.492Z,73.90
2019-04-05T00:35:13.266Z,74.00
2019-04-05T00:36:08.525Z,73.90
2019-04-05T00:37:05.420Z,73.90
2019-04-05T00:38:05.601Z,73.90
2019-04-05T00:39:05.640Z,73.90
2019-04-05T00:40:05.630Z,74.40
2019-04-05T00:41:05.722Z,74.40
2019-04-05T00:42:05.839Z,74.40
2019-04-05T00:43:05.935Z,74.30
2019-04-05T00:44:05.239Z,74.60
2019-04-05T00:45:05.280Z,75.20
2019-04-05T00:46:05.437Z,75.10
2019-04-05T00:47:08.571Z,75.20
2019-04-05T00:48:08.571Z,75.10
2019-04-05T00:49:05.566Z,75.10
2019-04-05T00:50:10.779Z,75.20
2019-04-05T00:51:08.529Z,75.40
2019-04-05T00:52:05.576Z,75.40
2019-04-05T00:53:05.811Z,75.40
2019-04-05T00:54:05.851Z,75.40
2019-04-05T00:55:05.971Z,75.30
2019-04-05T00:56:05.013Z,75.30
2019-04-05T00:57:05.055Z,75.40
2019-04-05T00:58:05.098Z,75.40
2019-04-05T00:59:05.198Z,75.40
2019-04-05T01:00:08.565Z,75.40
2019-04-05T01:01:10.680Z,75.20
2019-04-05T01:02:08.553Z,75.10
2019-04-05T01:03:05.536Z,75.20
2019-04-05T01:04:08.573Z,75.30
2019-04-05T01:05:05.523Z,75.30
2019-04-05T01:06:08.552Z,75.40
2019-04-05T01:07:05.499Z,75.40
2019-04-05T01:08:05.694Z,75.40
2019-04-05T01:09:05.779Z,75.50
2019-04-05T01:10:10.909Z,75.60
2019-04-05T01:11:08.544Z,76.00
2019-04-05T01:12:08.576Z,76.50
2019-04-05T01:13:08.548Z,76.40
2019-04-05T01:14:05.491Z,76.50
2019-04-05T01:15:05.697Z,76.60
2019-04-05T01:16:05.808Z,76.60
2019-04-05T01:17:08.554Z,77.10
2019-04-05T01:18:08.556Z,77.20
2019-04-05T01:19:08.593Z,77.30
2019-04-05T01:20:05.525Z,77.20
2019-04-05T01:21:05.575Z,77.30
2019-04-05T01:22:05.556Z,77.30
2019-04-05T01:23:05.720Z,77.40
2019-04-05T01:24:08.558Z,77.50
2019-04-05T01:25:05.629Z,77.50
2019-04-05T01:26:05.781Z,77.70
2019-04-05T01:27:08.574Z,77.80
2019-04-05T01:28:05.617Z,77.80
2019-04-05T01:29:08.556Z,77.80
2019-04-05T01:30:05.626Z,77.80
2019-04-05T01:31:08.579Z,77.80
2019-04-05T01:32:08.622Z,77.90
2019-04-05T01:33:05.562Z,77.90
2019-04-05T01:34:06.103Z,77.90
2019-04-05T01:35:05.200Z,78.00
2019-04-05T01:36:08.589Z,77.90
2019-04-05T01:37:05.569Z,77.90
2019-04-05T01:38:10.686Z,78.10
2019-04-05T01:39:08.576Z,78.20
2019-04-05T01:40:08.589Z,78.20
2019-04-05T01:41:05.489Z,78.20
2019-04-05T01:42:08.617Z,78.30
2019-04-05T01:43:05.623Z,78.30
2019-04-05T01:44:11.020Z,78.40
2019-04-05T01:45:04.897Z,78.50
2019-04-05T01:46:04.899Z,78.50
2019-04-05T01:47:04.962Z,78.70
2019-04-05T01:48:05.009Z,78.70
2019-04-05T01:49:05.000Z,78.70
2019-04-05T01:50:08.614Z,78.70
2019-04-05T01:51:08.638Z,78.80
2019-04-05T01:52:05.533Z,78.70
2019-04-05T01:53:05.604Z,78.80
2019-04-05T01:54:05.591Z,78.80
2019-04-05T01:55:08.588Z,78.90
2019-04-05T01:56:05.470Z,78.90
2019-04-05T01:57:08.583Z,79.00
2019-04-05T01:58:10.590Z,79.10
2019-04-05T01:59:10.699Z,79.20
2019-04-05T02:00:08.607Z,79.30
2019-04-05T02:01:05.710Z,79.30
2019-04-05T02:02:05.854Z,79.40
2019-04-05T02:03:04.925Z,79.40
2019-04-05T02:04:08.600Z,79.70
2019-04-05T02:05:08.593Z,79.70
2019-04-05T02:06:05.502Z,79.70
2019-04-05T02:07:05.603Z,80.00
2019-04-05T02:08:05.620Z,80.00
2019-04-05T02:09:08.592Z,80.00
2019-04-05T02:10:05.526Z,79.90
2019-04-05T02:11:05.598Z,79.90
2019-04-05T02:12:05.818Z,79.60
2019-04-05T02:13:08.599Z,80.10
2019-04-05T02:14:05.562Z,80.10
2019-04-05T02:15:05.604Z,80.10
2019-04-05T02:16:08.355Z,80.20
2019-04-05T02:17:08.618Z,80.40
2019-04-05T02:18:05.644Z,80.40
2019-04-05T02:19:05.700Z,80.50
2019-04-05T02:20:08.618Z,80.60
2019-04-05T02:21:05.673Z,80.60
2019-04-05T02:22:05.817Z,80.70
2019-04-05T02:23:05.110Z,80.70
2019-04-05T02:24:05.123Z,80.80
2019-04-05T02:25:05.250Z,80.90
2019-04-05T02:26:08.663Z,81.00
2019-04-05T02:27:08.632Z,81.10
2019-04-05T02:28:05.554Z,81.10
2019-04-05T02:29:05.691Z,81.10
2019-04-05T02:30:05.794Z,81.10
2019-04-05T02:31:05.831Z,81.20
2019-04-05T02:32:05.890Z,81.40
2019-04-05T02:33:05.919Z,81.50
2019-04-05T02:34:08.643Z,81.50
2019-04-05T02:35:05.666Z,81.50
2019-04-05T02:36:08.669Z,81.20
2019-04-05T02:37:05.595Z,81.30
2019-04-05T02:38:08.663Z,81.60
2019-04-05T02:39:05.610Z,81.60
2019-04-05T02:40:05.756Z,81.80
2019-04-05T02:41:08.644Z,81.70
2019-04-05T02:42:08.644Z,81.30
2019-04-05T02:43:05.609Z,81.30
2019-04-05T02:44:08.690Z,81.80
2019-04-05T02:45:05.677Z,81.70
2019-04-05T02:46:24.409Z,81.90
2019-04-05T02:47:05.461Z,81.80
2019-04-05T02:48:05.729Z,81.60
2019-04-05T02:49:05.860Z,82.00
2019-04-05T02:50:08.675Z,81.90
2019-04-05T02:51:08.692Z,81.90
2019-04-05T02:52:05.666Z,81.80
2019-04-05T02:53:08.670Z,81.70
2019-04-05T02:54:05.600Z,81.70
2019-04-05T02:55:08.662Z,81.70
2019-04-05T02:56:05.611Z,81.70
2019-04-05T02:57:05.642Z,81.90
2019-04-05T02:58:08.673Z,82.10
2019-04-05T02:59:05.593Z,82.10
2019-04-05T03:00:05.581Z,82.20
2019-04-05T03:01:08.764Z,82.20
2019-04-05T03:02:05.672Z,82.30
2019-04-05T03:03:05.823Z,82.20
2019-04-05T03:04:05.931Z,81.90
2019-04-05T03:05:05.025Z,81.90
2019-04-05T03:06:05.189Z,82.00
2019-04-05T03:07:10.452Z,82.20
2019-04-05T03:08:05.412Z,82.20
2019-04-05T03:09:05.480Z,82.20
2019-04-05T03:10:05.555Z,82.30
2019-04-05T03:11:05.644Z,82.20
2019-04-05T03:12:05.694Z,82.20
2019-04-05T03:13:05.787Z,81.90
2019-04-05T03:14:05.875Z,82.00
2019-04-05T03:15:08.676Z,81.90
2019-04-05T03:16:05.563Z,81.90
2019-04-05T03:17:05.658Z,81.90
2019-04-05T03:18:08.668Z,81.90
2019-04-05T03:19:05.755Z,81.90
2019-04-05T03:20:08.644Z,81.90
2019-04-05T03:21:05.701Z,81.90
2019-04-05T03:22:05.903Z,81.90
2019-04-05T03:23:04.899Z,81.90
2019-04-05T03:24:08.683Z,82.10
2019-04-05T03:25:05.711Z,82.00
2019-04-05T03:26:05.828Z,82.30
2019-04-05T03:27:05.931Z,82.40
2019-04-05T03:28:05.021Z,82.30
2019-04-05T03:29:05.100Z,82.40
2019-04-05T03:30:08.683Z,82.20
2019-04-05T03:31:08.679Z,82.30
2019-04-05T03:32:10.693Z,82.20
2019-04-05T03:33:08.762Z,82.30
2019-04-05T03:34:05.698Z,82.40
2019-04-05T03:35:05.755Z,82.40
2019-04-05T03:36:08.682Z,82.10
2019-04-05T03:37:10.690Z,82.20
2019-04-05T03:38:08.682Z,82.20
2019-04-05T03:39:05.658Z,82.30
2019-04-05T03:40:05.876Z,82.40
2019-04-05T03:41:04.939Z,82.40
2019-04-05T03:42:08.725Z,82.40
2019-04-05T03:43:05.773Z,82.40
2019-04-05T03:44:04.925Z,82.30
2019-04-05T03:45:04.991Z,82.20
2019-04-05T03:46:05.041Z,82.20
2019-04-05T03:47:05.145Z,82.20
2019-04-05T03:48:05.242Z,82.30
2019-04-05T03:49:05.347Z,82.20
2019-04-05T03:50:05.577Z,82.30
2019-04-05T03:51:08.727Z,82.40
2019-04-05T03:52:05.719Z,82.20
2019-04-05T03:53:05.784Z,82.40
2019-04-05T03:54:05.775Z,82.60
2019-04-05T03:55:05.853Z,82.10
2019-04-05T03:56:05.925Z,82.30
2019-04-05T03:57:04.952Z,82.40
2019-04-05T03:58:05.118Z,82.80
2019-04-05T03:59:05.168Z,82.70
2019-04-05T04:00:05.326Z,82.70
2019-04-05T04:01:05.439Z,82.80
2019-04-05T04:02:05.545Z,82.60
2019-04-05T04:03:05.723Z,82.60
2019-04-05T04:04:04.999Z,82.90
2019-04-05T04:05:08.755Z,83.10
2019-04-05T04:06:08.711Z,83.10
2019-04-05T04:07:05.654Z,82.90
2019-04-05T04:08:05.677Z,83.00
2019-04-05T04:09:08.717Z,82.90
2019-04-05T04:10:05.655Z,83.00
2019-04-05T04:11:05.812Z,83.20
2019-04-05T04:12:05.873Z,83.10
2019-04-05T04:13:04.954Z,83.20
2019-04-05T04:14:04.986Z,83.20
2019-04-05T04:15:05.101Z,83.20
2019-04-05T04:16:05.141Z,83.10
2019-04-05T04:17:13.456Z,83.20
2019-04-05T04:18:05.594Z,83.30
2019-04-05T04:19:05.739Z,83.40
2019-04-05T04:20:08.717Z,83.40
2019-04-05T04:21:08.736Z,83.40
2019-04-05T04:22:05.604Z,83.40
2019-04-05T04:23:08.726Z,83.60
2019-04-05T04:24:05.600Z,83.50
2019-04-05T04:25:08.736Z,83.60
2019-04-05T04:26:08.771Z,83.50
2019-04-05T04:27:05.648Z,83.60
2019-04-05T04:28:05.673Z,83.80
2019-04-05T04:29:05.766Z,83.50
2019-04-05T04:30:05.815Z,83.40
2019-04-05T04:31:05.876Z,83.40
2019-04-05T04:32:05.104Z,83.60
2019-04-05T04:33:05.228Z,83.40
2019-04-05T04:34:10.485Z,83.60
2019-04-05T04:35:08.786Z,83.60
2019-04-05T04:36:05.851Z,83.60
2019-04-05T04:37:08.763Z,83.80
2019-04-05T04:38:05.740Z,83.80
2019-04-05T04:39:05.855Z,83.70
2019-04-05T04:40:08.728Z,83.80
2019-04-05T04:41:05.641Z,83.80
2019-04-05T04:42:05.676Z,83.80
2019-04-05T04:43:08.762Z,83.90
2019-04-05T04:44:05.062Z,83.90
2019-04-05T04:45:13.027Z,83.90
2019-04-05T04:46:05.211Z,83.90
2019-04-05T04:47:08.739Z,83.90
2019-04-05T04:48:08.747Z,83.90
2019-04-05T04:49:08.756Z,83.80
2019-04-05T04:50:05.748Z,83.80
2019-04-05T04:51:05.762Z,83.90
2019-04-05T04:52:08.752Z,83.90
2019-04-05T04:53:08.771Z,84.00
2019-04-05T04:54:08.753Z,84.10
2019-04-05T04:55:08.752Z,84.10
2019-04-05T04:56:05.804Z,84.10
2019-04-05T04:57:05.959Z,84.10
2019-04-05T04:58:05.054Z,84.00
2019-04-05T04:59:08.800Z,83.90
2019-04-05T05:00:05.655Z,83.90
2019-04-05T05:01:05.798Z,83.90
2019-04-05T05:02:05.947Z,84.00
2019-04-05T05:03:04.991Z,84.10
2019-04-05T05:04:08.000Z,84.10
2019-04-05T05:05:05.230Z,84.10
2019-04-05T05:06:08.772Z,84.10
2019-04-05T05:07:08.801Z,84.20
2019-04-05T05:08:08.792Z,84.20
2019-04-05T05:09:05.812Z,84.20
2019-04-05T05:10:05.830Z,84.20
2019-04-05T05:11:15.207Z,84.40
2019-04-05T05:12:05.282Z,84.50
2019-04-05T05:13:05.385Z,84.50
2019-04-05T05:14:05.489Z,84.40
2019-04-05T05:15:08.798Z,84.40
2019-04-05T05:16:05.679Z,84.40
2019-04-05T05:17:05.764Z,84.40
2019-04-05T05:18:05.818Z,84.30
2019-04-05T05:19:05.861Z,84.30
2019-04-05T05:20:08.782Z,84.30
2019-04-05T05:21:05.838Z,84.30
2019-04-05T05:22:04.914Z,84.50
2019-04-05T05:23:04.948Z,84.40
2019-04-05T05:24:04.952Z,84.30
2019-04-05T05:25:08.767Z,84.30
2019-04-05T05:26:08.780Z,84.30
2019-04-05T05:27:05.679Z,84.30
2019-04-05T05:28:08.860Z,84.20
2019-04-05T05:29:08.808Z,84.30
2019-04-05T05:30:10.765Z,84.20
2019-04-05T05:31:05.644Z,84.20
2019-04-05T05:32:05.637Z,84.20
2019-04-05T05:33:05.658Z,84.20
2019-04-05T05:34:05.783Z,84.20
2019-04-05T05:35:05.838Z,84.20
2019-04-05T05:36:05.865Z,84.30
2019-04-05T05:37:10.060Z,84.30
2019-04-05T05:38:08.828Z,84.60
2019-04-05T05:39:08.817Z,84.30
2019-04-05T05:40:08.785Z,84.40
2019-04-05T05:41:05.704Z,84.40
2019-04-05T05:42:08.796Z,84.30
2019-04-05T05:43:05.652Z,84.30
2019-04-05T05:44:10.727Z,84.10
2019-04-05T05:45:05.574Z,84.20
2019-04-05T05:46:05.110Z,84.20
2019-04-05T05:47:10.262Z,84.30
2019-04-05T05:48:05.198Z,84.30
2019-04-05T05:49:05.246Z,84.30
2019-04-05T05:50:05.288Z,84.30
2019-04-05T05:51:05.338Z,84.20
2019-04-05T05:52:05.497Z,84.20
2019-04-05T05:53:08.831Z,84.10
2019-04-05T05:54:05.696Z,84.10
2019-04-05T05:55:05.910Z,84.20
2019-04-05T05:56:08.838Z,84.20
2019-04-05T05:57:05.796Z,84.20
2019-04-05T05:58:05.931Z,84.20
2019-04-05T05:59:04.990Z,84.20
2019-04-05T06:00:10.064Z,84.20
2019-04-05T06:01:08.834Z,84.30
2019-04-05T06:02:08.570Z,84.20
2019-04-05T06:03:10.691Z,84.10
2019-04-05T06:04:08.827Z,84.10
2019-04-05T06:05:08.823Z,84.20
2019-04-05T06:06:08.823Z,84.30
2019-04-05T06:07:05.782Z,84.30
2019-04-05T06:08:05.918Z,84.30
2019-04-05T06:09:05.037Z,84.30
2019-04-05T06:10:08.836Z,84.30
2019-04-05T06:11:08.835Z,84.30
2019-04-05T06:12:08.817Z,84.30
2019-04-05T06:14:13.001Z,84.30
2019-04-05T06:15:06.064Z,84.30
2019-04-05T06:15:08.512Z,84.30
2019-04-05T06:16:05.494Z,84.30
2019-04-05T06:17:05.553Z,84.30
2019-04-05T06:18:05.740Z,84.20
2019-04-05T06:19:08.832Z,84.30
2019-04-05T06:20:05.841Z,84.30
2019-04-05T06:21:04.921Z,84.30
2019-04-05T06:22:08.820Z,84.50
2019-04-05T06:23:05.702Z,84.50
2019-04-05T06:24:05.861Z,84.60
2019-04-05T06:25:08.867Z,84.70
2019-04-05T06:26:08.902Z,84.70
2019-04-05T06:27:05.820Z,59.10
2019-04-05T06:28:08.821Z,84.70
2019-04-05T06:29:05.685Z,84.60
2019-04-05T06:30:08.856Z,84.50
2019-04-05T06:31:05.837Z,84.50
2019-04-05T06:32:04.945Z,84.60
2019-04-05T06:33:04.929Z,84.70
2019-04-05T06:34:04.889Z,84.70
2019-04-05T06:35:04.914Z,84.70
2019-04-05T06:36:05.111Z,84.70
2019-04-05T06:37:08.839Z,84.70
2019-04-05T06:38:08.841Z,84.60
2019-04-05T06:39:05.822Z,84.70
2019-04-05T06:40:06.013Z,84.70
2019-04-05T06:41:05.051Z,84.60
2019-04-05T06:42:05.072Z,84.60
2019-04-05T06:43:08.580Z,84.70
2019-04-05T06:44:05.619Z,84.60
2019-04-05T06:45:05.646Z,84.70
2019-04-05T06:46:05.889Z,84.80
2019-04-05T06:47:04.932Z,84.80
2019-04-05T06:48:19.744Z,84.90
2019-04-05T06:49:05.808Z,85.00
2019-04-05T06:50:05.860Z,85.00
2019-04-05T06:51:04.928Z,85.00
2019-04-05T06:52:04.932Z,85.10
2019-04-05T06:53:04.985Z,85.10
2019-04-05T06:54:05.307Z,85.10
2019-04-05T06:55:05.473Z,85.10
2019-04-05T06:56:08.856Z,85.10
2019-04-05T06:57:08.858Z,85.10
2019-04-05T06:58:05.731Z,85.10
2019-04-05T06:59:05.908Z,85.10
2019-04-05T07:00:05.278Z,85.10
2019-04-05T07:01:05.390Z,85.10
2019-04-05T07:02:05.395Z,85.10
2019-04-05T07:03:05.092Z,85.20
2019-04-05T07:04:05.118Z,85.20
2019-04-05T07:05:05.273Z,85.20
2019-04-05T07:06:08.881Z,85.30
2019-04-05T07:07:05.807Z,85.30
2019-04-05T07:08:05.771Z,85.20
2019-04-05T07:09:05.796Z,85.30
2019-04-05T07:10:08.937Z,85.30
2019-04-05T07:11:08.885Z,85.30
2019-04-05T07:12:08.847Z,85.50
2019-04-05T07:13:05.985Z,85.50
2019-04-05T07:14:05.037Z,85.40
2019-04-05T07:15:05.095Z,85.40
2019-04-05T07:16:05.204Z,85.40
2019-04-05T07:17:05.459Z,85.40
2019-04-05T07:18:05.495Z,85.40
2019-04-05T07:19:05.554Z,85.40
2019-04-05T07:20:05.614Z,85.80
2019-04-05T07:21:05.620Z,86.00
2019-04-05T07:22:08.888Z,85.50
2019-04-05T07:23:05.816Z,85.50
2019-04-05T07:24:05.829Z,85.50
2019-04-05T07:25:05.847Z,85.40
2019-04-05T07:26:08.914Z,85.50
2019-04-05T07:27:05.813Z,85.50
2019-04-05T07:28:08.889Z,85.30
2019-04-05T07:29:05.814Z,85.30
2019-04-05T07:30:05.852Z,85.30
2019-04-05T07:31:08.901Z,85.20
2019-04-05T07:32:08.887Z,85.30
2019-04-05T07:33:08.903Z,85.30
2019-04-05T07:34:05.844Z,85.30
2019-04-05T07:35:08.921Z,85.30
2019-04-05T07:36:08.901Z,85.30
2019-04-05T07:37:10.979Z,85.30
2019-04-05T07:38:05.885Z,85.30
2019-04-05T07:39:05.931Z,85.40
2019-04-05T07:40:05.015Z,85.30
2019-04-05T07:41:05.101Z,85.40
2019-04-05T07:42:08.918Z,85.40
2019-04-05T07:43:05.839Z,85.40
2019-04-05T07:44:05.396Z,85.40
2019-04-05T07:45:05.588Z,85.50
2019-04-05T07:46:05.577Z,85.60
2019-04-05T07:47:05.560Z,85.60
2019-04-05T07:48:05.759Z,85.60
2019-04-05T07:49:08.901Z,85.50
2019-04-05T07:50:08.913Z,85.50
2019-04-05T07:51:05.933Z,85.50
2019-04-05T07:52:05.345Z,85.60
2019-04-05T07:53:05.402Z,85.60
2019-04-05T07:54:05.464Z,85.60
2019-04-05T07:55:08.931Z,85.60
2019-04-05T07:56:05.918Z,85.60
2019-04-05T07:57:08.980Z,85.60
2019-04-05T07:58:05.893Z,85.50
2019-04-05T07:59:04.935Z,85.60
2019-04-05T08:00:05.009Z,85.60
2019-04-05T08:01:08.950Z,85.60
2019-04-05T08:02:10.907Z,85.60
2019-04-05T08:03:05.792Z,85.60
2019-04-05T08:04:08.905Z,85.60
2019-04-05T08:05:06.844Z,85.50
2019-04-05T08:06:05.473Z,85.60
2019-04-05T08:07:05.645Z,85.60
2019-04-05T08:08:05.665Z,85.60
2019-04-05T08:09:08.940Z,85.60
2019-04-05T08:10:08.921Z,85.60
2019-04-05T08:11:05.837Z,85.60
2019-04-05T08:12:05.839Z,85.60
2019-04-05T08:13:05.823Z,85.60
2019-04-05T08:14:05.951Z,85.60
2019-04-05T08:15:05.173Z,85.60
2019-04-05T08:16:05.407Z,85.60
2019-04-05T08:17:08.951Z,85.60
2019-04-05T08:18:05.879Z,85.60
2019-04-05T08:19:04.922Z,85.60
2019-04-05T08:20:08.919Z,85.60
2019-04-05T08:21:05.814Z,85.60
2019-04-05T08:22:11.008Z,85.80
2019-04-05T08:23:08.968Z,85.80
2019-04-05T08:24:05.869Z,85.80
2019-04-05T08:25:05.867Z,85.90
2019-04-05T08:26:05.845Z,85.90
2019-04-05T08:27:04.930Z,85.80
2019-04-05T08:28:08.676Z,85.90
2019-04-05T08:29:05.749Z,86.00
2019-04-05T08:30:08.955Z,86.10
2019-04-05T08:31:14.263Z,86.00
2019-04-05T08:32:15.116Z,86.00
2019-04-05T08:33:05.315Z,86.00
2019-04-05T08:34:08.946Z,86.00
2019-04-05T08:35:06.012Z,86.00
2019-04-05T08:36:05.249Z,86.00
2019-04-05T08:37:05.295Z,86.00
2019-04-05T08:38:05.378Z,86.00
2019-04-05T08:39:08.961Z,86.00
2019-04-05T08:40:05.850Z,86.00
2019-04-05T08:41:08.990Z,85.80
2019-04-05T08:42:06.034Z,85.80
2019-04-05T08:43:09.005Z,85.90
2019-04-05T08:44:08.955Z,85.90
2019-04-05T08:45:05.989Z,85.90
2019-04-05T08:46:05.090Z,86.00
2019-04-05T08:47:08.969Z,86.10
2019-04-05T08:48:10.916Z,86.00
2019-04-05T08:49:11.875Z,86.00
2019-04-05T08:50:04.982Z,86.00
2019-04-05T08:51:05.152Z,86.10
2019-04-05T08:52:05.261Z,86.10
2019-04-05T08:53:08.975Z,86.10
2019-04-05T08:54:06.002Z,86.20
2019-04-05T08:55:05.078Z,86.10
2019-04-05T08:56:05.147Z,86.00
2019-04-05T08:57:05.351Z,86.00
2019-04-05T08:58:05.429Z,86.00
2019-04-05T08:59:08.973Z,86.10
2019-04-05T09:00:08.983Z,86.10
2019-04-05T09:01:05.849Z,86.10
2019-04-05T09:02:04.972Z,86.10
2019-04-05T09:03:04.960Z,86.10
2019-04-05T09:04:05.198Z,86.10
2019-04-05T09:05:05.326Z,86.10
2019-04-05T09:06:05.375Z,86.30
2019-04-05T09:07:05.473Z,86.30
2019-04-05T09:08:10.683Z,86.30
2019-04-05T09:09:08.990Z,86.20
2019-04-05T09:10:08.991Z,86.20
2019-04-05T09:11:04.994Z,86.20
2019-04-05T09:12:05.044Z,86.20
2019-04-05T09:13:09.027Z,86.30
2019-04-05T09:14:05.161Z,86.30
2019-04-05T09:15:05.252Z,86.10
2019-04-05T09:16:12.129Z,86.10
2019-04-05T09:17:05.086Z,86.00
2019-04-05T09:18:09.011Z,86.10
2019-04-05T09:19:04.923Z,86.10
2019-04-05T09:20:05.902Z,86.10
2019-04-05T09:21:05.146Z,86.10
2019-04-05T09:22:09.019Z,86.10
2019-04-05T09:23:04.942Z,86.20
2019-04-05T09:24:04.947Z,86.20
2019-04-05T09:25:08.985Z,86.40
2019-04-05T09:26:05.874Z,86.40
2019-04-05T09:27:09.000Z,86.40
2019-04-05T09:28:04.928Z,86.40
2019-04-05T09:29:10.206Z,86.30
2019-04-05T09:30:05.387Z,86.30
2019-04-05T09:31:05.493Z,86.30
2019-04-05T09:32:05.566Z,86.10
2019-04-05T09:33:05.684Z,86.10
2019-04-05T09:34:05.783Z,86.10
2019-04-05T09:35:09.051Z,86.00
2019-04-05T09:36:04.917Z,86.00
2019-04-05T09:37:05.041Z,86.00
2019-04-05T09:38:05.086Z,86.00
2019-04-05T09:39:05.143Z,86.00
2019-04-05T09:40:08.997Z,86.00
2019-04-05T09:41:05.950Z,86.00
2019-04-05T09:42:09.005Z,86.00
2019-04-05T09:43:05.909Z,86.00
2019-04-05T09:44:05.379Z,86.00
2019-04-05T09:45:09.065Z,86.00
2019-04-05T09:46:09.044Z,86.00
2019-04-05T09:47:04.955Z,86.00
2019-04-05T09:48:08.995Z,86.00
2019-04-05T09:49:09.026Z,85.90
2019-04-05T09:50:05.065Z,85.90
2019-04-05T09:51:08.756Z,85.90
2019-04-05T09:52:05.743Z,86.00
2019-04-05T09:53:05.772Z,86.00
2019-04-05T09:54:09.047Z,86.00
2019-04-05T09:55:09.031Z,86.40
2019-04-05T09:56:05.124Z,86.40
2019-04-05T09:57:10.388Z,86.00
2019-04-05T09:58:05.419Z,86.00
2019-04-05T09:59:09.013Z,86.00
2019-04-05T10:00:04.987Z,86.00
2019-04-05T10:01:09.013Z,86.10
2019-04-05T10:02:05.051Z,86.00
2019-04-05T10:03:05.205Z,86.10
2019-04-05T10:04:09.028Z,86.20
2019-04-05T10:05:04.929Z,86.20
2019-04-05T10:06:08.879Z,86.30
2019-04-05T10:07:05.765Z,86.30
2019-04-05T10:08:05.819Z,86.20
2019-04-05T10:09:10.946Z,86.20
2019-04-05T10:10:09.050Z,86.20
2019-04-05T10:11:04.991Z,86.20
2019-04-05T10:12:05.034Z,86.20
2019-04-05T10:13:05.222Z,86.20
2019-04-05T10:14:05.439Z,86.10
2019-04-05T10:15:09.056Z,86.20
2019-04-05T10:16:05.121Z,86.20
2019-04-05T10:17:05.275Z,86.20
2019-04-05T10:18:05.350Z,86.20
2019-04-05T10:19:09.059Z,86.10
2019-04-05T10:20:05.153Z,86.20
2019-04-05T10:21:05.365Z,86.20
2019-04-05T10:22:05.529Z,86.10
2019-04-05T10:23:05.523Z,86.10
2019-04-05T10:24:09.078Z,86.30
2019-04-05T10:25:08.917Z,86.30
2019-04-05T10:26:05.931Z,86.30
2019-04-05T10:27:05.078Z,86.30
2019-04-05T10:28:05.200Z,86.30
2019-04-05T10:29:05.292Z,86.30
2019-04-05T10:30:05.343Z,86.20
2019-04-05T10:31:09.061Z,86.30
2019-04-05T10:32:04.990Z,86.30
2019-04-05T10:33:05.025Z,86.30
2019-04-05T10:34:09.045Z,86.20
2019-04-05T10:35:05.073Z,86.20
2019-04-05T10:36:05.139Z,86.20
2019-04-05T10:37:09.092Z,86.20
2019-04-05T10:38:05.024Z,86.20
2019-04-05T10:39:05.048Z,86.30
2019-04-05T10:40:09.064Z,86.30
2019-04-05T10:41:12.770Z,86.20
2019-04-05T10:42:05.705Z,86.30
2019-04-05T10:43:10.869Z,86.10
2019-04-05T10:44:08.923Z,86.20
2019-04-05T10:45:05.828Z,86.20
2019-04-05T10:46:09.092Z,86.30
2019-04-05T10:47:05.040Z,86.30
2019-04-05T10:48:05.242Z,86.30
2019-04-05T10:49:09.062Z,86.10
2019-04-05T10:50:04.939Z,86.20
2019-04-05T10:51:05.006Z,86.20
2019-04-05T10:52:05.168Z,86.10
2019-04-05T10:53:05.214Z,86.20
2019-04-05T10:54:05.355Z,86.20
2019-04-05T10:55:05.461Z,86.20
2019-04-05T10:56:05.489Z,86.10
2019-04-05T10:57:09.069Z,86.10
2019-04-05T10:58:05.111Z,86.10
2019-04-05T10:59:09.078Z,86.00
2019-04-05T11:00:08.937Z,86.10
2019-04-05T11:01:05.907Z,86.00
2019-04-05T11:02:08.950Z,86.00
2019-04-05T11:03:09.099Z,86.00
2019-04-05T11:04:09.085Z,86.00
2019-04-05T11:05:05.114Z,86.00
2019-04-05T11:06:09.101Z,86.10
2019-04-05T11:07:09.104Z,86.00
2019-04-05T11:08:05.064Z,86.00
2019-04-05T11:09:05.149Z,86.00
2019-04-05T11:10:05.588Z,86.10
2019-04-05T11:11:05.675Z,86.10
2019-04-05T11:12:09.222Z,86.00
2019-04-05T11:13:05.230Z,86.00
2019-04-05T11:14:14.368Z,86.10
2019-04-05T11:15:05.531Z,86.10
2019-04-05T11:16:05.541Z,86.10
2019-04-05T11:17:05.653Z,86.10
2019-04-05T11:18:09.103Z,86.10
2019-04-05T11:19:09.166Z,86.00
2019-04-05T11:20:21.679Z,86.10
2019-04-05T11:21:05.872Z,86.00
2019-04-05T11:22:05.059Z,86.20
2019-04-05T11:23:09.094Z,86.40
2019-04-05T11:24:05.084Z,86.40
2019-04-05T11:25:05.157Z,86.10
2019-04-05T11:26:05.235Z,86.10
2019-04-05T11:27:08.630Z,86.10
2019-04-05T11:28:09.138Z,86.20
2019-04-05T11:29:09.132Z,86.10
2019-04-05T11:30:04.990Z,86.10
2019-04-05T11:31:05.133Z,86.10
2019-04-05T11:32:05.129Z,86.00
2019-04-05T11:33:09.134Z,86.10
2019-04-05T11:34:05.031Z,86.00
2019-04-05T11:35:09.138Z,86.00
2019-04-05T11:36:05.176Z,86.00
2019-04-05T11:37:05.227Z,86.00
2019-04-05T11:38:05.229Z,85.90
2019-04-05T11:39:05.791Z,86.00
2019-04-05T11:40:05.798Z,86.00
2019-04-05T11:41:05.951Z,85.90
2019-04-05T11:42:09.164Z,85.80
2019-04-05T11:43:05.096Z,85.80
2019-04-05T11:44:09.166Z,85.80
2019-04-05T11:45:09.204Z,85.80
2019-04-05T11:46:05.298Z,85.80
2019-04-05T11:47:05.368Z,85.70
2019-04-05T11:48:05.509Z,85.80
2019-04-05T11:49:05.569Z,86.10
2019-04-05T11:50:05.821Z,85.80
2019-04-05T11:51:05.808Z,85.90
2019-04-05T11:52:06.040Z,85.90
2019-04-05T11:53:05.295Z,86.10
2019-04-05T11:54:05.389Z,86.20
2019-04-05T11:55:05.552Z,85.70
2019-04-05T11:56:15.321Z,85.90
2019-04-05T11:57:05.580Z,85.60
2019-04-05T11:58:05.626Z,85.60
2019-04-05T11:59:05.604Z,85.60
2019-04-05T12:00:09.203Z,85.60
2019-04-05T12:01:05.215Z,85.60
2019-04-05T12:02:09.188Z,85.50
2019-04-05T12:03:10.133Z,85.50
2019-04-05T12:04:09.170Z,85.50
2019-04-05T12:05:05.132Z,85.40
2019-04-05T12:06:05.229Z,85.40
2019-04-05T12:07:05.440Z,85.40
2019-04-05T12:08:05.494Z,85.50
2019-04-05T12:09:05.563Z,85.60
2019-04-05T12:10:05.717Z,85.50
2019-04-05T12:11:05.911Z,85.50
2019-04-05T12:12:05.127Z,85.50
2019-04-05T12:13:05.206Z,85.40
2019-04-05T12:14:05.264Z,85.40
2019-04-05T12:15:08.688Z,85.40
2019-04-05T12:16:10.172Z,85.40
2019-04-05T12:17:09.461Z,85.40
2019-04-05T12:18:05.756Z,85.30
2019-04-05T12:19:06.066Z,85.30
2019-04-05T12:20:05.185Z,85.30
2019-04-05T12:21:06.136Z,85.30
2019-04-05T12:22:08.993Z,85.20
2019-04-05T12:23:05.184Z,85.20
2019-04-05T12:24:05.250Z,85.30
2019-04-05T12:25:05.275Z,85.30
2019-04-05T12:26:05.528Z,85.20
2019-04-05T12:27:05.993Z,85.20
2019-04-05T12:28:10.532Z,85.20
2019-04-05T12:29:05.790Z,85.20
2019-04-05T12:30:05.796Z,85.20
2019-04-05T12:31:09.179Z,85.10
2019-04-05T12:32:15.722Z,84.90
2019-04-05T12:33:14.885Z,84.90
2019-04-05T12:34:04.960Z,84.60
2019-04-05T12:35:04.954Z,84.30
2019-04-05T12:36:05.710Z,84.10
2019-04-05T12:37:05.869Z,84.00
2019-04-05T12:38:08.894Z,83.90
2019-04-05T12:39:08.910Z,84.00
2019-04-05T12:40:07.582Z,84.10
2019-04-05T12:41:05.807Z,84.10
2019-04-05T12:42:13.156Z,83.80
2019-04-05T12:43:05.095Z,83.90
2019-04-05T12:44:09.168Z,83.80
2019-04-05T12:45:05.104Z,83.80
2019-04-05T12:46:10.376Z,83.80
2019-04-05T12:47:09.195Z,83.80
2019-04-05T12:48:05.270Z,83.80
2019-04-05T12:49:09.181Z,83.90
2019-04-05T12:50:09.185Z,83.80
2019-04-05T12:51:06.118Z,83.80
2019-04-05T12:52:05.382Z,83.80